Unlu-5 — TCON5 — position and weather

sailwx.info

Track history (hours):
 
Tides and Currents Weather Stations Pressure Air Temp Water Temp Dewpoint Dewpoint Depression Visibility Wind Speed Wind Dir Waves Ship Positions

Unlu-5

Last reported at 2016-Apr-24 02:19 UTC. Time now 2016-Apr-30 03:24 UTC.
Position N 41°14' E 037°48'.

Length 99 m; draft 3.5 m.

Type: Ship. MMSI: 271000854.

Date/timePositionNaut miles runAvg speedWind from/ knotsBaromVisibWave heightAir tempDewpointWater temp
2016-Apr-24 02:19N 41°14' E 037°48'6 7.9
2016-Apr-24 01:33N 41°13' E 037°40'8 7.5
2016-Apr-24 00:32N 41°15' E 037°30'  
2016-Apr-20 18:33N 43°47' E 038°47'6 6.4
2016-Apr-20 17:33N 43°53' E 038°52'6 5.9
2016-Apr-20 16:33N 43°58' E 038°57'6 6.1
2016-Apr-20 15:33N 44°03' E 039°02'3 3.4
2016-Apr-20 14:31N 44°05' E 039°04'0 0.0
2016-Apr-20 13:31N 44°05' E 039°04'0 0.0
2016-Apr-20 12:31N 44°05' E 039°04'0 0.0
2016-Apr-20 11:31N 44°05' E 039°04'0 0.0
2016-Apr-20 10:31N 44°05' E 039°04'0 0.0
2016-Apr-20 09:31N 44°05' E 039°04'0 0.0
2016-Apr-20 08:31N 44°05' E 039°04'0 0.0
2016-Apr-20 07:31N 44°05' E 039°04'0 0.0
2016-Apr-20 06:31N 44°05' E 039°04'0 0.0
2016-Apr-20 05:31N 44°05' E 039°04'0 0.0
2016-Apr-20 04:31N 44°05' E 039°04'0 0.0
2016-Apr-20 03:31N 44°05' E 039°04'0 0.0
2016-Apr-20 02:31N 44°05' E 039°04'0 0.0
2016-Apr-20 01:31N 44°05' E 039°04'0 0.1
2016-Apr-20 00:31N 44°05' E 039°04'0 0.2
2016-Apr-19 23:31N 44°06' E 039°05'0 0.0
2016-Apr-19 22:31N 44°06' E 039°05'0 0.0
2016-Apr-19 21:31N 44°06' E 039°05'0 0.0
2016-Apr-19 20:31N 44°06' E 039°05'0 0.0
2016-Apr-19 19:31N 44°06' E 039°05'0 0.0
2016-Apr-19 18:31N 44°06' E 039°05'0 0.0
2016-Apr-19 17:31N 44°06' E 039°05'0 0.0
2016-Apr-19 16:31N 44°06' E 039°05'0 0.0
2016-Apr-19 15:34N 44°05' E 039°05'3 2.5
2016-Apr-19 14:31N 44°03' E 039°06'0 0.0
2016-Apr-19 13:31N 44°03' E 039°06'0 0.0
2016-Apr-19 12:31N 44°03' E 039°06'0 0.0
2016-Apr-19 11:31N 44°03' E 039°06'0 0.0
2016-Apr-19 10:31N 44°03' E 039°06'0 0.0
2016-Apr-19 09:31N 44°03' E 039°06'0 0.0
2016-Apr-19 08:25N 44°03' E 039°06'0 0.0
2016-Apr-19 07:31N 44°03' E 039°06'0 0.0
2016-Apr-19 06:31N 44°03' E 039°06'0 0.0
2016-Apr-19 05:31N 44°03' E 039°06'0 0.0
2016-Apr-19 04:31N 44°03' E 039°06'0 0.0
2016-Apr-19 03:31N 44°03' E 039°06'0 0.0
2016-Apr-19 02:31N 44°03' E 039°06'0 0.0
2016-Apr-19 01:31N 44°03' E 039°06'0 0.0
2016-Apr-19 00:31N 44°03' E 039°06'0 0.0
2016-Apr-18 23:31N 44°03' E 039°06'0 0.0
2016-Apr-18 22:31N 44°03' E 039°06'0 0.0
2016-Apr-18 21:31N 44°03' E 039°06'0 0.0
2016-Apr-18 20:31N 44°03' E 039°06'0 0.0
2016-Apr-18 19:31N 44°03' E 039°06'0 0.0
2016-Apr-18 18:31N 44°03' E 039°06'0 0.0
2016-Apr-18 17:31N 44°03' E 039°06'0 0.0
2016-Apr-18 16:31N 44°03' E 039°06'0 0.0
2016-Apr-18 15:31N 44°03' E 039°06'0 0.0
2016-Apr-18 14:31N 44°03' E 039°06'0 0.0
2016-Apr-18 13:31N 44°03' E 039°06'0 0.0
2016-Apr-18 12:31N 44°03' E 039°06'0 0.0
2016-Apr-18 11:28N 44°03' E 039°06'0 0.0
2016-Apr-18 10:31N 44°03' E 039°06'0 0.0
2016-Apr-18 09:31N 44°03' E 039°06'0 0.0
2016-Apr-18 08:31N 44°03' E 039°06'0 0.0
2016-Apr-18 07:31N 44°03' E 039°06'0 0.0
2016-Apr-18 06:31N 44°03' E 039°06'0 0.0
2016-Apr-18 05:31N 44°03' E 039°06'0 0.0
2016-Apr-18 04:31N 44°03' E 039°06'0 0.0
2016-Apr-18 03:28N 44°03' E 039°06'0 0.0
2016-Apr-18 02:33N 44°03' E 039°06'0 0.0
2016-Apr-18 01:31N 44°03' E 039°06'0 0.0
2016-Apr-18 00:31N 44°03' E 039°06'0 0.0
2016-Apr-17 23:28N 44°03' E 039°06'0 0.0
2016-Apr-17 22:31N 44°03' E 039°06'0 0.0
2016-Apr-17 21:31N 44°03' E 039°06'0 0.0
2016-Apr-17 20:31N 44°03' E 039°06'0 0.0
2016-Apr-17 19:31N 44°03' E 039°06'0 0.0
2016-Apr-17 18:31N 44°03' E 039°06'0 0.0
2016-Apr-17 17:31N 44°03' E 039°06'0 0.0
2016-Apr-17 16:31N 44°03' E 039°06'0 0.0
2016-Apr-17 15:31N 44°03' E 039°06'0 0.0
2016-Apr-17 14:31N 44°03' E 039°06'0 0.0
2016-Apr-17 13:31N 44°03' E 039°06'0 0.0
2016-Apr-17 12:31N 44°03' E 039°06'0 0.0
2016-Apr-17 11:31N 44°03' E 039°06'0 0.0
2016-Apr-17 10:31N 44°03' E 039°06'0 0.0
2016-Apr-17 09:31N 44°03' E 039°06'0 0.0
2016-Apr-17 08:31N 44°03' E 039°06'0 0.0
2016-Apr-17 07:31N 44°03' E 039°06'0 0.0
2016-Apr-17 06:31N 44°03' E 039°06'0 0.0
2016-Apr-17 05:31N 44°03' E 039°06'0 0.0
2016-Apr-17 04:31N 44°03' E 039°06'0 0.0
2016-Apr-17 03:31N 44°03' E 039°06'0 0.0
2016-Apr-17 02:31N 44°03' E 039°06'0 0.0
2016-Apr-17 01:31N 44°03' E 039°06'0 0.0
2016-Apr-17 00:31N 44°03' E 039°06'0 0.0
2016-Apr-16 23:31N 44°03' E 039°06'0 0.1
2016-Apr-16 22:31N 44°03' E 039°06'0 0.0
2016-Apr-16 21:31N 44°03' E 039°06'0 0.0
2016-Apr-16 20:31N 44°03' E 039°06'0 0.0
2016-Apr-16 19:31N 44°03' E 039°06'0 0.0
2016-Apr-16 18:31N 44°03' E 039°06'6 6.3
2016-Apr-16 17:33N 43°58' E 039°02'8 8.2
2016-Apr-16 16:33N 43°50' E 039°08'8 8.0
2016-Apr-16 15:34N 43°44' E 039°15'  
Track history (hours):
 
Tides and Currents Weather Stations Pressure Air Temp Water Temp Dewpoint Dewpoint Depression Visibility Wind Speed Wind Dir Waves Ship Positions

Unlu-5

Last reported at 2016-Apr-24 02:19 UTC. Time now 2016-Apr-30 03:24 UTC.
Position N 41°14' E 037°48'.

Length 99 m; draft 3.5 m.

Type: Ship. MMSI: 271000854.

Date/timePositionNaut miles runAvg speedWind from/ knotsBaromVisibWave heightAir tempDewpointWater temp
2016-Apr-24 02:19N 41°14' E 037°48'6 7.9
2016-Apr-24 01:33N 41°13' E 037°40'8 7.5
2016-Apr-24 00:32N 41°15' E 037°30'  
2016-Apr-20 18:33N 43°47' E 038°47'6 6.4
2016-Apr-20 17:33N 43°53' E 038°52'6 5.9
2016-Apr-20 16:33N 43°58' E 038°57'6 6.1
2016-Apr-20 15:33N 44°03' E 039°02'3 3.4
2016-Apr-20 14:31N 44°05' E 039°04'0 0.0
2016-Apr-20 13:31N 44°05' E 039°04'0 0.0
2016-Apr-20 12:31N 44°05' E 039°04'0 0.0
2016-Apr-20 11:31N 44°05' E 039°04'0 0.0
2016-Apr-20 10:31N 44°05' E 039°04'0 0.0
2016-Apr-20 09:31N 44°05' E 039°04'0 0.0
2016-Apr-20 08:31N 44°05' E 039°04'0 0.0
2016-Apr-20 07:31N 44°05' E 039°04'0 0.0
2016-Apr-20 06:31N 44°05' E 039°04'0 0.0
2016-Apr-20 05:31N 44°05' E 039°04'0 0.0
2016-Apr-20 04:31N 44°05' E 039°04'0 0.0
2016-Apr-20 03:31N 44°05' E 039°04'0 0.0
2016-Apr-20 02:31N 44°05' E 039°04'0 0.0
2016-Apr-20 01:31N 44°05' E 039°04'0 0.1
2016-Apr-20 00:31N 44°05' E 039°04'0 0.2
2016-Apr-19 23:31N 44°06' E 039°05'0 0.0
2016-Apr-19 22:31N 44°06' E 039°05'0 0.0
2016-Apr-19 21:31N 44°06' E 039°05'0 0.0
2016-Apr-19 20:31N 44°06' E 039°05'0 0.0
2016-Apr-19 19:31N 44°06' E 039°05'0 0.0
2016-Apr-19 18:31N 44°06' E 039°05'0 0.0
2016-Apr-19 17:31N 44°06' E 039°05'0 0.0
2016-Apr-19 16:31N 44°06' E 039°05'0 0.0
2016-Apr-19 15:34N 44°05' E 039°05'3 2.5
2016-Apr-19 14:31N 44°03' E 039°06'0 0.0
2016-Apr-19 13:31N 44°03' E 039°06'0 0.0
2016-Apr-19 12:31N 44°03' E 039°06'0 0.0
2016-Apr-19 11:31N 44°03' E 039°06'0 0.0
2016-Apr-19 10:31N 44°03' E 039°06'0 0.0
2016-Apr-19 09:31N 44°03' E 039°06'0 0.0
2016-Apr-19 08:25N 44°03' E 039°06'0 0.0
2016-Apr-19 07:31N 44°03' E 039°06'0 0.0
2016-Apr-19 06:31N 44°03' E 039°06'0 0.0
2016-Apr-19 05:31N 44°03' E 039°06'0 0.0
2016-Apr-19 04:31N 44°03' E 039°06'0 0.0
2016-Apr-19 03:31N 44°03' E 039°06'0 0.0
2016-Apr-19 02:31N 44°03' E 039°06'0 0.0
2016-Apr-19 01:31N 44°03' E 039°06'0 0.0
2016-Apr-19 00:31N 44°03' E 039°06'0 0.0
2016-Apr-18 23:31N 44°03' E 039°06'0 0.0
2016-Apr-18 22:31N 44°03' E 039°06'0 0.0
2016-Apr-18 21:31N 44°03' E 039°06'0 0.0
2016-Apr-18 20:31N 44°03' E 039°06'0 0.0
2016-Apr-18 19:31N 44°03' E 039°06'0 0.0
2016-Apr-18 18:31N 44°03' E 039°06'0 0.0
2016-Apr-18 17:31N 44°03' E 039°06'0 0.0
2016-Apr-18 16:31N 44°03' E 039°06'0 0.0
2016-Apr-18 15:31N 44°03' E 039°06'0 0.0
2016-Apr-18 14:31N 44°03' E 039°06'0 0.0
2016-Apr-18 13:31N 44°03' E 039°06'0 0.0
2016-Apr-18 12:31N 44°03' E 039°06'0 0.0
2016-Apr-18 11:28N 44°03' E 039°06'0 0.0
2016-Apr-18 10:31N 44°03' E 039°06'0 0.0
2016-Apr-18 09:31N 44°03' E 039°06'0 0.0
2016-Apr-18 08:31N 44°03' E 039°06'0 0.0
2016-Apr-18 07:31N 44°03' E 039°06'0 0.0
2016-Apr-18 06:31N 44°03' E 039°06'0 0.0
2016-Apr-18 05:31N 44°03' E 039°06'0 0.0
2016-Apr-18 04:31N 44°03' E 039°06'0 0.0
2016-Apr-18 03:28N 44°03' E 039°06'0 0.0
2016-Apr-18 02:33N 44°03' E 039°06'0 0.0
2016-Apr-18 01:31N 44°03' E 039°06'0 0.0
2016-Apr-18 00:31N 44°03' E 039°06'0 0.0
2016-Apr-17 23:28N 44°03' E 039°06'0 0.0
2016-Apr-17 22:31N 44°03' E 039°06'0 0.0
2016-Apr-17 21:31N 44°03' E 039°06'0 0.0
2016-Apr-17 20:31N 44°03' E 039°06'0 0.0
2016-Apr-17 19:31N 44°03' E 039°06'0 0.0
2016-Apr-17 18:31N 44°03' E 039°06'0 0.0
2016-Apr-17 17:31N 44°03' E 039°06'0 0.0
2016-Apr-17 16:31N 44°03' E 039°06'0 0.0
2016-Apr-17 15:31N 44°03' E 039°06'0 0.0
2016-Apr-17 14:31N 44°03' E 039°06'0 0.0
2016-Apr-17 13:31N 44°03' E 039°06'0 0.0
2016-Apr-17 12:31N 44°03' E 039°06'0 0.0
2016-Apr-17 11:31N 44°03' E 039°06'0 0.0
2016-Apr-17 10:31N 44°03' E 039°06'0 0.0
2016-Apr-17 09:31N 44°03' E 039°06'0 0.0
2016-Apr-17 08:31N 44°03' E 039°06'0 0.0
2016-Apr-17 07:31N 44°03' E 039°06'0 0.0
2016-Apr-17 06:31N 44°03' E 039°06'0 0.0
2016-Apr-17 05:31N 44°03' E 039°06'0 0.0
2016-Apr-17 04:31N 44°03' E 039°06'0 0.0
2016-Apr-17 03:31N 44°03' E 039°06'0 0.0
2016-Apr-17 02:31N 44°03' E 039°06'0 0.0
2016-Apr-17 01:31N 44°03' E 039°06'0 0.0
2016-Apr-17 00:31N 44°03' E 039°06'0 0.0
2016-Apr-16 23:31N 44°03' E 039°06'0 0.1
2016-Apr-16 22:31N 44°03' E 039°06'0 0.0
2016-Apr-16 21:31N 44°03' E 039°06'0 0.0
2016-Apr-16 20:31N 44°03' E 039°06'0 0.0
2016-Apr-16 19:31N 44°03' E 039°06'0 0.0
2016-Apr-16 18:31N 44°03' E 039°06'6 6.3
2016-Apr-16 17:33N 43°58' E 039°02'8 8.2
2016-Apr-16 16:33N 43°50' E 039°08'8 8.0
2016-Apr-16 15:34N 43°44' E 039°15'  

Dump ship's entire track history